Aviation Digital Data Service (ADDS)

Output produced by METARs form (1811 UTC 14 August 2018)
found at http://www.aviationweather.gov/adds/metars/
 
TAF MHLC 141636Z 1418/1518 09004KT 9999 SCT022TCU FEW024CB TX31/1419Z TN22/1512Z 
     PROB30 
     TEMPO 1420/1502 07012KT 6000 VCSH SCT024CB 
     BECMG 1502/1504 9999 NSW SCT022 
     BECMG 1510/1512 11004KT FEW024 SCT090
       
TAF MHLM 141636Z 1418/1518 00000KT 9999 FEW026 TX34/1419Z TN23/1512Z 
     BECMG 1420/1422 04010KT 
     PROB30 
     TEMPO 1423/1505 8000 VCSH SCT026 FEW028CB 
     BECMG 1505/1507 13004KT 9999 NSW SCT025 
     BECMG 1513/1515 00000KT FEW024
       
TAF MHRO 141636Z 1418/1518 09008KT 9999 FEW024 TX31/1419Z TN27/1512Z 
     BECMG 1418/1420 07015KT 
     BECMG 1410/1412 09008KT SCT020TCU
       
TAF MHSC 141309Z 1413/1519 VRB06KT 9999 SCT035 BKN050 QNH3000INS 
     BECMG 1420/1421 02009KT 9000 -SHRA SCT055 QNH2995INS 
     TEMPO 1421/1502 VRB12G20KT VCTS BKN050CB 
     BECMG 1503/1504 01009KT 9999 NSW BKN020 QNH3002INS 
     BECMG 1514/1515 VRB06KT 9999 SCT035 QNH3006INS 
     BECMG 1517/1518 01009KT 9999 VCSH SCT055 QNH3001INS TX30/1420Z TN19/1413Z
       
TAF MHTG 141636Z 1418/1518 06004KT 9999 SCT028 TX28/1421Z TN16/1512Z 
     PROB30 
     TEMPO 1423/1503 01004KT 8000 VCSH SCT028TCU FEW030CB 
     BECMG 1503/1505 9999 NSW SCT028TCU 
     BECMG 1508/1510 8000 FEW007 BKN024 
     BECMG 1514/1516 9999 BKN026
       
TAF MHSC 141309Z 1413/1519 VRB06KT 9999 SCT035 BKN050 QNH3000INS 
     BECMG 1420/1421 02009KT 9000 -SHRA SCT055 QNH2995INS 
     TEMPO 1421/1502 VRB12G20KT VCTS BKN050CB 
     BECMG 1503/1504 01009KT 9999 NSW BKN020 QNH3002INS 
     BECMG 1514/1515 VRB06KT 9999 SCT035 QNH3006INS 
     BECMG 1517/1518 01009KT 9999 VCSH SCT055 QNH3001INS TX30/1420Z TN19/1413Z
       
TAF MHLC 141636Z 1418/1518 09004KT 9999 SCT022TCU FEW024CB TX31/1419Z TN22/1512Z 
     PROB30 
     TEMPO 1420/1502 07012KT 6000 VCSH SCT024CB 
     BECMG 1502/1504 9999 NSW SCT022 
     BECMG 1510/1512 11004KT FEW024 SCT090
       
TAF MHLM 141636Z 1418/1518 00000KT 9999 FEW026 TX34/1419Z TN23/1512Z 
     BECMG 1420/1422 04010KT 
     PROB30 
     TEMPO 1423/1505 8000 VCSH SCT026 FEW028CB 
     BECMG 1505/1507 13004KT 9999 NSW SCT025 
     BECMG 1513/1515 00000KT FEW024
       
TAF MHRO 141636Z 1418/1518 09008KT 9999 FEW024 TX31/1419Z TN27/1512Z 
     BECMG 1418/1420 07015KT 
     BECMG 1410/1412 09008KT SCT020TCU
       
TAF MHSC 141309Z 1413/1519 VRB06KT 9999 SCT035 BKN050 QNH3000INS 
     BECMG 1420/1421 02009KT 9000 -SHRA SCT055 QNH2995INS 
     TEMPO 1421/1502 VRB12G20KT VCTS BKN050CB 
     BECMG 1503/1504 01009KT 9999 NSW BKN020 QNH3002INS 
     BECMG 1514/1515 VRB06KT 9999 SCT035 QNH3006INS 
     BECMG 1517/1518 01009KT 9999 VCSH SCT055 QNH3001INS TX30/1420Z TN19/1413Z
       
TAF MHTG 141636Z 1418/1518 06004KT 9999 SCT028 TX28/1421Z TN16/1512Z 
     PROB30 
     TEMPO 1423/1503 01004KT 8000 VCSH SCT028TCU FEW030CB 
     BECMG 1503/1505 9999 NSW SCT028TCU 
     BECMG 1508/1510 8000 FEW007 BKN024 
     BECMG 1514/1516 9999 BKN026
       
TAF MHLC 141636Z 1418/1518 09004KT 9999 SCT022TCU FEW024CB TX31/1419Z TN22/1512Z 
     PROB30 
     TEMPO 1420/1502 07012KT 6000 VCSH SCT024CB 
     BECMG 1502/1504 9999 NSW SCT022 
     BECMG 1510/1512 11004KT FEW024 SCT090
       
TAF MHLM 141636Z 1418/1518 00000KT 9999 FEW026 TX34/1419Z TN23/1512Z 
     BECMG 1420/1422 04010KT 
     PROB30 
     TEMPO 1423/1505 8000 VCSH SCT026 FEW028CB 
     BECMG 1505/1507 13004KT 9999 NSW SCT025 
     BECMG 1513/1515 00000KT FEW024
       
TAF MHRO 141636Z 1418/1518 09008KT 9999 FEW024 TX31/1419Z TN27/1512Z 
     BECMG 1418/1420 07015KT 
     BECMG 1410/1412 09008KT SCT020TCU
       
TAF MHTG 141636Z 1418/1518 06004KT 9999 SCT028 TX28/1421Z TN16/1512Z 
     PROB30 
     TEMPO 1423/1503 01004KT 8000 VCSH SCT028TCU FEW030CB 
     BECMG 1503/1505 9999 NSW SCT028TCU 
     BECMG 1508/1510 8000 FEW007 BKN024 
     BECMG 1514/1516 9999 BKN026